Detailed Flight Report of Nuri Burak ERKAL ;
Number CXD079 
Departure Aerodrome ENTC 
Arrival Aerodrome LTBJ

Map generated by the Great Circle Mapper - copyright © Karl L. Swartz.

Pilot In Command CXD079 : Nuri Burak Erkal
Aircraft B773 / TC-NZL
Date Of Flight 2020-06-30
Departure Time 07:59 UTC
Arrival Time 12:32 UTC
Block Time 04:33
Distance 1,999 Nm.
Used Fuel 32,767 Lbs.
   
Detailed Flight Log [2020/06/30 07:47:00]
Flight IATA:C001
Pilot Number:079
Company ICAO:CXD
Aircraft Type:B773
Aircraft Registration:TC-NZL
Departing Airport: ENTC
Destination Airport: LTBJ
Alternate Airport:LTBU
Online: VATSIM
Route:LOMVI P600 TRO P853 NOVRI DCT SLU P998 SUTEV DCT DUBIN M854 BABUN N743 DINRO L620 RIXEN UG1 IST UG8 BIG UG80 BERGO
Flight Level:FL370
No pause
07:47 Zero fuel Weight: 503427 Lbs, Fuel Weight: 100244 Lbs
07:47 VATSIM:ENTC 291420Z 06010KT 9999 OVC023 10/05 Q1007 NOSIG RMK WIND 2600FT 02013KT
07:47 VATSIM:LTBJ 291420Z 33021KT CAVOK 32/14 Q1005 NOSIG
07:55 Parking Brakes off
08:05 VR= 159 Knots
08:05 V2= 190 Knots
08:05 Take-off
08:05 Take off Weight: 602276 Lbs
08:05 Wind: 045º @ 009 Knots Heading: 013º
08:05 POS N69º 41´ 27´´ E018º 55´ 26´´
08:05 N11 95 N12 95
08:05 Flaps:15º at 191 Knots
08:05 Gear Up: 180 Knots
08:05 Flaps:5º at 179 Knots
08:06 Flaps
:1º at 192 Knots
08:06 Flaps:Up at 209 Knots
08:20 Wind:272º@057 Knots Heading: 174º Ground Speed: 493 Knots Altitude 31906 ft
08:24 TOC
08:24 Fuel Weight: 87876 Lb
08:35 Wind:266º@036 Knots Heading: 173º Ground Speed: 477 Knots Altitude 36660 ft
08:50 Wind:239º@042 Knots Heading: 169º Ground Speed: 460 Knots Altitude 36742 ft
09:05 Wind:232º@050 Knots Heading: 171º Ground Speed: 448 Knots Altitude 36774 ft
09:20 Wind:243º@043 Knots Heading: 171º Ground Speed: 461 Knots Altitude 36788 ft
09:35 Wind:246º@043 Knots Heading: 172º Ground Speed: 462 Knots Altitude 36778 ft
09:50 Wind:254º@044 Knots Heading: 173º Ground Speed: 468 Knots Altitude 36794 ft
10:05 Wind:267º@038 Knots Heading: 165º Ground Speed: 482 Knots Altitude 36801 ft
10:20 Wind:285º@026 Knots Heading: 167º Ground Speed: 486 Knots Altitude 36827 ft
10:35 Wind:316º@018 Knots Heading: 183º Ground Speed: 4
89 Knots Altitude 36827 ft
10:50 Wind:343º@018 Knots Heading: 176º Ground Speed: 494 Knots Altitude 36843 ft
11:05 Wind:352º@019 Knots Heading: 180º Ground Speed: 497 Knots Altitude 36814 ft
11:20 Wind:339º@017 Knots Heading: 178º Ground Speed: 495 Knots Altitude 36820 ft
11:35 Wind:274º@025 Knots Heading: 184º Ground Speed: 487 Knots Altitude 36843 ft
11:50 Wind:253º@051 Knots Heading: 187º Ground Speed: 473 Knots Altitude 36870 ft
11:59 TOD
11:59 Fuel Weight: 30716 Lb
12:05 Wind:277º@025 Knots Heading: 190º Ground Speed: 434 Knots Altitude 29543 ft
12:20 Wind:000º@011 Knots Heading: 154º Ground Speed: 295 Knots Altitude 6761 ft
12:23 Flaps:1º at 193 Knots
12:23 Flaps:5º at 176 Knots
12:23 Flaps:15º at 170 Knots
12:23 Gear Down: 173 Knots
12:25 Flaps:30º at 177 Knots
12:25 Flaps:35º at 164 Knots
12:25 Flaps:Full at 158 Knots
12:26 TouchDown:Rate -78 ft/min Sp
eed: 134 Knots
12:26 VATSIM:LTBJ 291850Z 01014KT CAVOK 28/14 Q1006 NOSIG
12:26 Land
12:26 Wind:009º@014 Knots
12:26 Heading: 346º
12:26 Flight Duration: 04:21
12:26 Landing Weight: 530575 Lbs
12:26 POS N38º 17´ 29´´ E027º 09´ 28´´
12:28 Parking brakes on
12:28 Block to Block Duration: 04:33
12:28 Final Fuel: 27039 Lbls
12:28 Spent Fuel: 73205 Lbls
12:28 Flight Length: 1999 NM
12:28 TOD Land Length: 156 NM

Text Link of Flight Log http://www.candanair.net/acars/logs/CXD07920200630074700.txt
   

[ Back ]